Time;durP1;ratioP1;P1;durP2;ratioP2;P2;SDS_P1;SDS_P2;PMS_P1;PMS_P2;Temp;Humidity;BMP_temperature;BMP_pressure;BME280_temperature;BME280_humidity;BME280_pressure;Samples;Min_cycle;Max_cycle;Signal;HPM_P1;HPM_P2
2021/11/19 00:01:28;;;;;;;14.63;8.02;;;11.20;92.60;;;;;;4974670;28;20030;-66
2021/11/19 00:03:54;;;;;;;17.73;8.85;;;11.10;92.80;;;;;;4970251;28;20073;-66
2021/11/19 00:06:20;;;;;;;14.65;9.43;;;11.10;92.80;;;;;;4964718;28;20030;-66
2021/11/19 00:08:50;;;;;;;18.42;9.55;;;11.20;92.80;;;;;;4958693;28;20066;-66
2021/11/19 00:11:20;;;;;;;16.73;8.70;;;11.20;92.80;;;;;;4959484;28;20034;-66
2021/11/19 00:13:47;;;;;;;17.00;9.18;;;11.20;92.80;;;;;;4966203;28;20050;-65
2021/11/19 00:16:15;;;;;;;16.70;10.27;;;11.20;93.00;;;;;;4968947;28;20023;-66
2021/11/19 00:18:42;;;;;;;17.65;9.63;;;11.20;93.10;;;;;;4959843;28;20086;-66
2021/11/19 00:21:08;;;;;;;18.38;9.63;;;11.20;93.10;;;;;;4962938;28;20101;-66
2021/11/19 00:23:34;;;;;;;19.70;10.35;;;11.20;93.20;;;;;;4976236;28;20054;-65
2021/11/19 00:26:00;;;;;;;16.48;9.60;;;11.30;93.10;;;;;;4977704;28;20169;-65
2021/11/19 00:28:26;;;;;;;17.77;10.90;;;11.30;93.10;;;;;;4980412;28;20883;-65
2021/11/19 00:30:52;;;;;;;20.17;9.68;;;11.20;93.30;;;;;;4976507;28;20122;-65
2021/11/19 00:33:19;;;;;;;16.67;10.02;;;11.20;93.40;;;;;;4970633;28;20053;-65
2021/11/19 00:35:46;;;;;;;19.40;9.00;;;11.20;93.40;;;;;;4981305;28;20500;-67
2021/11/19 00:38:15;;;;;;;19.70;9.52;;;11.20;93.50;;;;;;4964549;28;20034;-65
2021/11/19 00:40:49;;;;;;;15.57;10.07;;;11.20;93.40;;;;;;4968857;28;20030;-66
2021/11/19 00:43:16;;;;;;;16.60;9.60;;;11.30;93.20;;;;;;4963615;28;20034;-65
2021/11/19 00:45:43;;;;;;;14.30;8.93;;;11.30;93.10;;;;;;4978423;28;20042;-65
2021/11/19 00:48:10;;;;;;;15.20;8.65;;;11.40;92.90;;;;;;4976774;28;20076;-67
2021/11/19 00:50:57;;;;;;;15.95;9.57;;;11.40;92.90;;;;;;4987784;28;20085;-66
2021/11/19 00:53:23;;;;;;;15.15;9.32;;;11.50;92.80;;;;;;4974482;28;20038;-66
2021/11/19 00:55:49;;;;;;;14.30;9.18;;;11.60;92.60;;;;;;4980083;28;20041;-65
2021/11/19 00:58:16;;;;;;;16.27;9.68;;;11.50;92.40;;;;;;4975130;28;20125;-65
2021/11/19 01:00:47;;;;;;;17.73;8.95;;;11.60;92.50;;;;;;4985196;28;20054;-65
2021/11/19 01:03:16;;;;;;;14.60;8.63;;;11.60;92.50;;;;;;4976380;28;20026;-65
2021/11/19 01:05:42;;;;;;;14.05;8.55;;;11.50;92.50;;;;;;4972893;28;20137;-65
2021/11/19 01:08:09;;;;;;;14.75;9.35;;;11.60;92.60;;;;;;4977854;28;20030;-66
2021/11/19 01:10:37;;;;;;;14.43;9.00;;;11.60;92.40;;;;;;4989286;28;20042;-66
2021/11/19 01:13:04;;;;;;;14.65;9.43;;;11.60;92.50;;;;;;4977698;28;20050;-66
2021/11/19 01:15:36;;;;;;;13.45;7.82;;;11.60;92.80;;;;;;4977513;28;20042;-65
2021/11/19 01:18:18;;;;;;;12.38;8.13;;;11.60;92.40;;;;;;4968383;28;20046;-66
2021/11/19 01:21:16;;;;;;;15.50;7.93;;;11.70;92.50;;;;;;4988895;28;20489;-66
2021/11/19 01:23:43;;;;;;;13.70;8.30;;;11.70;92.40;;;;;;4962228;28;20133;-65
2021/11/19 01:26:31;;;;;;;17.08;8.77;;;11.70;92.40;;;;;;4967293;28;20068;-66
2021/11/19 01:28:59;;;;;;;11.93;8.25;;;11.70;92.40;;;;;;4967223;28;20491;-66
2021/11/19 01:31:35;;;;;;;12.23;8.43;;;11.80;92.40;;;;;;4961977;28;20041;-66
2021/11/19 01:34:08;;;;;;;14.15;8.82;;;11.80;92.40;;;;;;4964016;28;20042;-66
2021/11/19 01:36:45;;;;;;;12.38;8.43;;;11.80;92.40;;;;;;4968688;28;20061;-66
2021/11/19 01:39:32;;;;;;;13.18;8.55;;;11.80;92.40;;;;;;4980585;28;20093;-65
2021/11/19 01:42:32;;;;;;;12.35;7.75;;;11.80;92.30;;;;;;4976980;28;20925;-66
2021/11/19 01:45:13;;;;;;;16.30;9.10;;;11.80;92.40;;;;;;4967112;28;20113;-66
2021/11/19 01:47:42;;;;;;;14.10;7.97;;;11.90;92.40;;;;;;4973398;28;20034;-65
2021/11/19 01:50:33;;;;;;;11.55;7.95;;;11.80;92.60;;;;;;4975966;28;20108;-66
2021/11/19 01:53:19;;;;;;;16.25;8.70;;;11.80;92.50;;;;;;4989731;28;20767;-66
2021/11/19 01:56:01;;;;;;;12.35;7.97;;;11.90;92.60;;;;;;4972903;28;20074;-66
2021/11/19 01:58:35;;;;;;;14.95;8.77;;;11.90;92.50;;;;;;4961554;28;20030;-66
2021/11/19 02:01:27;;;;;;;14.73;8.90;;;12.00;92.50;;;;;;4962124;28;20078;-66
2021/11/19 02:04:01;;;;;;;11.90;8.10;;;12.00;92.50;;;;;;4969995;28;20073;-66
2021/11/19 02:07:08;;;;;;;15.70;9.55;;;12.00;92.50;;;;;;4973496;28;20066;-66
2021/11/19 02:10:25;;;;;;;15.57;8.60;;;12.00;92.50;;;;;;4957242;28;20081;-66
2021/11/19 02:13:13;;;;;;;14.00;8.80;;;12.00;92.60;;;;;;4983535;28;20121;-66
2021/11/19 02:15:49;;;;;;;12.43;8.88;;;12.00;92.70;;;;;;4974394;28;20049;-66
2021/11/19 02:19:01;;;;;;;11.55;8.57;;;12.00;92.80;;;;;;4977122;28;20224;-65
2021/11/19 02:21:42;;;;;;;12.82;8.30;;;12.00;92.80;;;;;;4964235;28;20046;-66
2021/11/19 02:24:16;;;;;;;16.85;9.35;;;12.00;92.70;;;;;;4965698;28;20267;-65
2021/11/19 02:26:47;;;;;;;16.95;10.05;;;12.00;92.70;;;;;;4960343;28;20499;-66
2021/11/19 02:29:14;;;;;;;17.77;10.15;;;12.00;92.70;;;;;;4977620;28;20493;-66
2021/11/19 02:32:03;;;;;;;13.00;9.55;;;12.00;92.70;;;;;;4959476;28;20112;-65
2021/11/19 02:34:40;;;;;;;14.15;9.38;;;12.00;92.70;;;;;;4965075;28;20053;-66
2021/11/19 02:37:34;;;;;;;14.85;8.88;;;12.10;92.80;;;;;;4976893;28;20026;-65
2021/11/19 02:40:05;;;;;;;14.00;8.85;;;12.10;92.80;;;;;;4967686;28;20085;-66
2021/11/19 02:42:49;;;;;;;14.45;9.68;;;12.10;92.70;;;;;;4986969;28;20133;-65
2021/11/19 02:45:26;;;;;;;15.02;9.23;;;12.20;92.80;;;;;;4977268;28;20034;-65
2021/11/19 02:47:54;;;;;;;14.02;9.48;;;12.20;92.70;;;;;;4972108;28;20034;-65
2021/11/19 02:50:23;;;;;;;18.02;10.27;;;12.10;92.80;;;;;;4967980;28;20030;-66
2021/11/19 02:52:54;;;;;;;12.38;9.38;;;12.10;92.70;;;;;;4973526;28;20030;-66
2021/11/19 02:55:27;;;;;;;14.20;10.25;;;12.10;93.20;;;;;;4960163;28;20034;-65
2021/11/19 02:57:53;;;;;;;16.42;10.48;;;12.10;92.90;;;;;;4981640;28;20675;-65
2021/11/19 03:00:26;;;;;;;15.27;9.65;;;12.10;93.30;;;;;;4987280;28;20692;-65
2021/11/19 03:02:53;;;;;;;15.05;9.70;;;12.10;93.00;;;;;;4977089;28;20684;-66
2021/11/19 03:05:23;;;;;;;20.25;11.48;;;12.10;93.10;;;;;;4963743;28;20137;-66
2021/11/19 03:07:49;;;;;;;17.40;10.63;;;12.20;93.00;;;;;;4969036;28;20121;-66
2021/11/19 03:10:41;;;;;;;15.48;10.00;;;12.20;93.00;;;;;;4989713;28;20061;-65
2021/11/19 03:13:08;;;;;;;14.30;10.50;;;12.20;92.90;;;;;;4972757;28;20042;-66
2021/11/19 03:15:38;;;;;;;19.08;11.32;;;12.20;93.00;;;;;;4970041;28;20563;-65
2021/11/19 03:18:05;;;;;;;16.60;11.27;;;12.30;92.90;;;;;;4971091;28;20041;-65
2021/11/19 03:20:31;;;;;;;17.00;11.02;;;12.30;92.80;;;;;;4985646;28;20118;-65
2021/11/19 03:22:58;;;;;;;18.50;11.20;;;12.30;92.70;;;;;;4977617;28;20031;-66
2021/11/19 03:25:28;;;;;;;19.25;11.45;;;12.30;92.90;;;;;;4981864;28;20037;-66
2021/11/19 03:27:59;;;;;;;19.63;12.80;;;12.20;93.10;;;;;;4959993;28;20042;-65
2021/11/19 03:30:30;;;;;;;22.95;11.98;;;12.20;93.20;;;;;;4975146;28;20040;-66
2021/11/19 03:32:57;;;;;;;23.25;13.15;;;12.20;93.20;;;;;;4976596;28;20034;-66
2021/11/19 03:35:25;;;;;;;24.70;13.00;;;12.20;93.30;;;;;;4982156;28;20038;-66
2021/11/19 03:37:53;;;;;;;20.65;12.55;;;12.20;93.30;;;;;;4971625;28;20097;-66
2021/11/19 03:40:26;;;;;;;20.83;13.27;;;12.20;93.30;;;;;;4975678;28;20026;-66
2021/11/19 03:42:59;;;;;;;22.25;13.15;;;12.20;93.40;;;;;;4963658;28;20080;-66
2021/11/19 03:45:29;;;;;;;21.10;12.13;;;12.20;93.30;;;;;;4969127;28;20752;-66
2021/11/19 03:47:56;;;;;;;23.05;12.73;;;12.20;93.40;;;;;;4974903;28;20435;-66
2021/11/19 03:50:30;;;;;;;22.85;13.15;;;12.20;93.50;;;;;;4976140;28;20041;-66
2021/11/19 03:52:56;;;;;;;20.83;12.60;;;12.20;93.60;;;;;;4965864;28;20793;-66
2021/11/19 03:55:27;;;;;;;24.88;14.55;;;12.20;93.60;;;;;;4983478;28;20031;-65
2021/11/19 03:57:53;;;;;;;22.63;13.02;;;12.20;93.40;;;;;;4985951;28;20417;-65
2021/11/19 04:00:28;;;;;;;22.55;14.18;;;12.20;93.50;;;;;;4980669;28;20038;-66
2021/11/19 04:02:56;;;;;;;27.23;14.27;;;12.20;93.50;;;;;;4972838;28;20706;-66
2021/11/19 04:05:23;;;;;;;26.25;13.90;;;12.20;93.60;;;;;;4967483;28;20034;-66
2021/11/19 04:07:48;;;;;;;24.35;14.10;;;12.20;93.70;;;;;;4979673;28;20118;-66
2021/11/19 04:10:18;;;;;;;24.73;14.65;;;12.20;93.80;;;;;;4983389;28;20117;-66
2021/11/19 04:12:45;;;;;;;23.27;13.45;;;12.10;93.80;;;;;;4988556;28;20049;-66
2021/11/19 04:15:16;;;;;;;24.95;14.20;;;12.10;93.90;;;;;;4977599;28;20061;-66
2021/11/19 04:17:43;;;;;;;25.27;13.95;;;12.10;94.00;;;;;;4979650;28;20054;-66
2021/11/19 04:20:11;;;;;;;25.75;14.73;;;12.20;94.00;;;;;;4984991;28;20699;-66
2021/11/19 04:22:37;;;;;;;28.15;14.02;;;12.20;94.00;;;;;;4989584;28;20026;-66
2021/11/19 04:25:07;;;;;;;27.60;14.02;;;12.20;94.10;;;;;;4994948;28;20037;-66
2021/11/19 04:27:37;;;;;;;24.05;14.50;;;12.10;94.20;;;;;;4977755;28;20081;-66
2021/11/19 04:30:28;;;;;;;22.77;13.57;;;12.10;94.40;;;;;;4972827;28;20069;-66
2021/11/19 04:32:55;;;;;;;27.48;14.93;;;12.10;94.40;;;;;;4967720;28;20030;-66
2021/11/19 04:35:21;;;;;;;25.73;14.48;;;12.10;94.40;;;;;;4978904;28;20033;-66
2021/11/19 04:37:48;;;;;;;25.42;13.55;;;12.20;94.40;;;;;;4983085;28;20748;-66
2021/11/19 04:40:16;;;;;;;25.98;14.77;;;12.10;94.30;;;;;;4972319;28;20031;-66
2021/11/19 04:42:42;;;;;;;28.60;14.52;;;12.10;94.40;;;;;;4975960;28;20026;-66
2021/11/19 04:45:11;;;;;;;26.52;13.98;;;12.20;94.40;;;;;;4978825;28;20034;-66
2021/11/19 04:47:40;;;;;;;24.63;14.93;;;12.20;94.40;;;;;;4973318;28;20125;-66
2021/11/19 04:50:09;;;;;;;24.98;13.05;;;12.20;94.40;;;;;;4988874;28;20506;-66
2021/11/19 04:52:36;;;;;;;25.48;13.13;;;12.20;94.30;;;;;;4978487;28;20447;-66
2021/11/19 04:55:05;;;;;;;21.58;12.52;;;12.30;94.20;;;;;;4979447;28;20034;-66
2021/11/19 04:57:31;;;;;;;22.85;13.00;;;12.30;94.10;;;;;;4978665;28;20039;-66
2021/11/19 04:59:57;;;;;;;24.63;13.20;;;12.30;94.10;;;;;;4973639;28;20034;-66
2021/11/19 05:02:23;;;;;;;25.55;13.88;;;12.20;94.10;;;;;;4994083;28;20038;-66
2021/11/19 05:05:00;;;;;;;24.17;11.85;;;12.20;94.10;;;;;;4975255;28;20123;-65
2021/11/19 05:07:26;;;;;;;20.10;12.05;;;12.30;94.10;;;;;;4968814;28;20034;-66
2021/11/19 05:09:52;;;;;;;19.75;11.32;;;12.30;94.00;;;;;;4979917;28;20108;-65
2021/11/19 05:12:30;;;;;;;19.95;11.57;;;12.30;93.90;;;;;;4961082;28;20038;-66
2021/11/19 05:14:55;;;;;;;18.45;11.70;;;12.40;93.80;;;;;;4966782;28;20121;-66
2021/11/19 05:17:23;;;;;;;22.65;11.43;;;12.40;93.70;;;;;;4987704;28;20042;-65
2021/11/19 05:19:52;;;;;;;17.88;11.98;;;12.40;93.70;;;;;;4979579;28;20027;-66
2021/11/19 05:22:18;;;;;;;17.33;11.38;;;12.50;93.70;;;;;;4977942;28;20817;-65
2021/11/19 05:24:45;;;;;;;19.90;11.82;;;12.50;93.60;;;;;;4971615;28;20034;-65
2021/11/19 05:27:13;;;;;;;18.60;11.73;;;12.50;93.60;;;;;;4982158;28;20118;-66
2021/11/19 05:29:39;;;;;;;16.92;11.07;;;12.50;93.50;;;;;;4978098;28;20038;-66
2021/11/19 05:32:06;;;;;;;18.15;10.57;;;12.50;93.50;;;;;;4980134;28;20113;-66
2021/11/19 05:34:32;;;;;;;18.73;10.38;;;12.50;93.60;;;;;;4983569;28;20054;-66
2021/11/19 05:36:59;;;;;;;19.58;11.15;;;12.50;93.60;;;;;;4972680;28;20034;-66
2021/11/19 05:39:25;;;;;;;18.15;10.82;;;12.50;93.50;;;;;;4994682;28;20030;-66
2021/11/19 05:41:51;;;;;;;16.65;11.52;;;12.50;93.60;;;;;;4973686;28;20041;-65
2021/11/19 05:44:18;;;;;;;18.80;10.80;;;12.50;93.60;;;;;;4988081;28;20042;-66
2021/11/19 05:47:03;;;;;;;24.80;11.90;;;12.50;93.60;;;;;;4977484;28;20517;-66
2021/11/19 05:49:29;;;;;;;17.25;11.27;;;12.50;93.60;;;;;;4974985;28;20114;-65
2021/11/19 05:52:00;;;;;;;18.75;10.43;;;12.50;93.40;;;;;;4968367;28;20108;-66
2021/11/19 05:54:29;;;;;;;16.58;9.60;;;12.50;93.90;;;;;;4963935;28;20437;-66
2021/11/19 05:56:55;;;;;;;15.25;10.15;;;12.50;93.70;;;;;;4975584;28;20049;-67
2021/11/19 05:59:23;;;;;;;16.33;9.48;;;12.50;93.60;;;;;;4976538;28;20068;-66
2021/11/19 06:02:16;;;;;;;15.23;10.13;;;12.50;93.60;;;;;;4963442;28;20069;-66
2021/11/19 06:05:05;;;;;;;11.90;8.63;;;12.60;93.40;;;;;;4975565;28;20199;-66
2021/11/19 06:07:50;;;;;;;18.70;9.57;;;12.60;93.30;;;;;;4962164;28;20572;-66
2021/11/19 06:10:18;;;;;;;14.98;8.80;;;12.50;93.40;;;;;;4967802;28;20035;-66
2021/11/19 06:12:51;;;;;;;13.05;8.50;;;12.50;93.60;;;;;;4974121;28;20034;-66
2021/11/19 06:15:24;;;;;;;11.32;7.53;;;12.50;93.60;;;;;;4977388;28;20034;-66
2021/11/19 06:17:55;;;;;;;13.65;8.73;;;12.50;93.60;;;;;;4986666;28;20834;-66
2021/11/19 06:20:24;;;;;;;14.25;7.00;;;12.60;93.40;;;;;;4973057;28;20064;-67
2021/11/19 06:22:59;;;;;;;14.32;8.77;;;12.60;93.40;;;;;;4969367;28;20038;-66
2021/11/19 06:25:29;;;;;;;12.48;8.65;;;12.60;93.30;;;;;;4963611;28;20118;-65
2021/11/19 06:28:00;;;;;;;14.48;7.88;;;12.50;93.40;;;;;;4971803;28;20505;-65
2021/11/19 06:30:27;;;;;;;13.13;7.97;;;12.60;93.40;;;;;;4974585;28;20026;-65
2021/11/19 06:32:54;;;;;;;12.02;8.35;;;12.60;93.50;;;;;;4990487;28;20133;-65
2021/11/19 06:35:20;;;;;;;14.45;8.38;;;12.60;93.40;;;;;;4980833;28;20027;-66
2021/11/19 06:37:46;;;;;;;12.93;8.43;;;12.60;93.40;;;;;;4981475;28;20030;-65
2021/11/19 06:40:36;;;;;;;13.55;8.68;;;12.60;93.40;;;;;;4962557;28;20072;-66
2021/11/19 06:43:20;;;;;;;9.90;7.07;;;12.60;93.40;;;;;;4973207;28;20097;-66
2021/11/19 06:46:24;;;;;;;13.93;8.55;;;12.70;93.30;;;;;;4968743;28;20128;-65
2021/11/19 06:49:12;;;;;;;13.65;8.55;;;12.60;93.40;;;;;;4974220;28;20039;-65
2021/11/19 06:51:56;;;;;;;12.23;8.00;;;12.60;93.30;;;;;;4971297;28;20116;-65
2021/11/19 06:54:22;;;;;;;11.43;7.95;;;12.60;93.40;;;;;;4975187;28;20046;-65
2021/11/19 06:57:10;;;;;;;12.20;7.32;;;12.70;93.40;;;;;;4987439;28;20030;-65
2021/11/19 06:59:39;;;;;;;11.32;7.63;;;12.70;93.40;;;;;;4971889;28;20030;-65
2021/11/19 07:02:07;;;;;;;10.77;7.35;;;12.60;93.50;;;;;;4973188;28;20033;-65
2021/11/19 07:04:33;;;;;;;9.38;7.15;;;12.70;93.50;;;;;;4970213;28;20033;-65
2021/11/19 07:07:01;;;;;;;9.20;7.03;;;12.60;93.50;;;;;;4968984;28;20035;-64
2021/11/19 07:09:27;;;;;;;10.50;7.13;;;12.60;93.50;;;;;;4961706;28;20187;-64
2021/11/19 07:11:52;;;;;;;9.98;7.30;;;12.70;93.50;;;;;;4991898;28;20790;-64
2021/11/19 07:14:25;;;;;;;12.77;7.53;;;12.70;93.40;;;;;;4963471;28;20599;-63
2021/11/19 07:16:51;;;;;;;13.25;8.15;;;12.80;93.30;;;;;;4989048;28;20044;-65
2021/11/19 07:19:20;;;;;;;11.30;7.75;;;12.70;93.30;;;;;;4979871;28;20641;-65
2021/11/19 07:21:46;;;;;;;10.50;6.43;;;12.70;93.50;;;;;;4988411;28;20141;-66
2021/11/19 07:24:12;;;;;;;11.48;7.32;;;12.70;93.60;;;;;;4976501;28;20054;-66
2021/11/19 07:26:39;;;;;;;11.48;7.43;;;12.70;93.60;;;;;;4995651;28;20026;-64
2021/11/19 07:29:05;;;;;;;13.95;7.32;;;12.70;93.50;;;;;;4970298;28;20034;-65
2021/11/19 07:31:54;;;;;;;9.07;6.47;;;12.70;93.50;;;;;;4958929;28;20289;-66
2021/11/19 07:34:44;;;;;;;8.75;5.85;;;12.70;93.70;;;;;;4960669;28;20093;-65
2021/11/19 07:37:35;;;;;;;11.50;7.28;;;12.70;93.70;;;;;;4982126;28;20101;-65
2021/11/19 07:40:18;;;;;;;10.95;7.05;;;12.70;93.60;;;;;;4970935;28;20043;-66
2021/11/19 07:43:05;;;;;;;9.88;7.05;;;12.80;93.60;;;;;;4970710;28;20038;-65
2021/11/19 07:45:44;;;;;;;10.15;6.72;;;12.80;93.20;;;;;;4973328;28;20057;-65
2021/11/19 07:48:32;;;;;;;10.05;6.72;;;12.80;93.30;;;;;;4961558;28;20736;-65
2021/11/19 07:51:01;;;;;;;9.00;6.57;;;12.80;93.30;;;;;;4974114;28;20041;-66
2021/11/19 07:53:28;;;;;;;10.75;7.03;;;12.90;93.20;;;;;;4986618;28;20035;-66
2021/11/19 07:55:56;;;;;;;13.07;7.47;;;12.90;93.10;;;;;;4992807;28;20073;-66
2021/11/19 07:58:24;;;;;;;14.35;7.93;;;12.90;93.10;;;;;;4973383;28;20034;-66
2021/11/19 08:00:50;;;;;;;12.65;8.13;;;12.90;93.00;;;;;;4988482;28;20034;-66
2021/11/19 08:03:17;;;;;;;13.70;7.68;;;13.00;93.00;;;;;;4974345;28;20062;-67
2021/11/19 08:05:46;;;;;;;9.80;6.93;;;13.00;92.90;;;;;;4975126;28;20034;-66
2021/11/19 08:08:19;;;;;;;13.48;7.57;;;13.20;92.80;;;;;;4969277;28;20473;-66
2021/11/19 08:11:03;;;;;;;10.63;6.95;;;13.20;92.50;;;;;;4989265;28;20080;-65
2021/11/19 08:13:29;;;;;;;11.20;7.03;;;13.30;92.30;;;;;;4978554;28;20060;-66
2021/11/19 08:15:56;;;;;;;10.13;7.53;;;13.40;92.10;;;;;;4962800;28;20513;-66
2021/11/19 08:18:29;;;;;;;13.57;8.13;;;13.40;92.00;;;;;;4969537;28;20458;-66
2021/11/19 08:20:56;;;;;;;14.27;7.90;;;13.30;92.10;;;;;;4971731;28;20550;-64
2021/11/19 08:23:36;;;;;;;10.88;7.78;;;13.30;92.20;;;;;;4975512;28;20755;-62
2021/11/19 08:26:19;;;;;;;14.38;7.72;;;13.20;92.40;;;;;;4976002;28;20371;-66
2021/11/19 08:28:45;;;;;;;11.32;8.02;;;13.20;92.30;;;;;;4971141;28;20877;-64
2021/11/19 08:31:17;;;;;;;15.02;8.68;;;13.20;92.40;;;;;;4970880;28;20034;-67
2021/11/19 08:33:43;;;;;;;13.07;8.48;;;13.20;92.30;;;;;;4959274;28;20090;-66
2021/11/19 08:36:10;;;;;;;13.07;7.88;;;13.20;92.50;;;;;;4971490;28;20049;-71
2021/11/19 08:38:41;;;;;;;12.20;8.32;;;13.20;92.50;;;;;;4973878;28;20065;-66
2021/11/19 08:41:09;;;;;;;10.25;7.90;;;13.20;92.50;;;;;;4987010;28;20461;-67
2021/11/19 08:43:41;;;;;;;18.52;9.50;;;13.20;92.50;;;;;;4969300;28;20615;-66
2021/11/19 08:46:11;;;;;;;13.38;8.38;;;13.30;92.50;;;;;;4968862;28;20097;-67
2021/11/19 08:48:38;;;;;;;11.00;8.15;;;13.30;92.40;;;;;;4980630;28;20755;-67
2021/11/19 08:51:07;;;;;;;10.68;7.43;;;13.30;92.30;;;;;;4975161;28;20049;-66
2021/11/19 08:53:33;;;;;;;12.80;9.52;;;13.20;92.60;;;;;;4963076;28;20034;-66
2021/11/19 08:56:01;;;;;;;11.85;8.32;;;13.20;92.70;;;;;;4978042;28;20030;-67
2021/11/19 08:58:33;;;;;;;12.23;8.32;;;13.20;92.70;;;;;;4974848;28;20030;-67
2021/11/19 09:01:01;;;;;;;12.73;9.15;;;13.20;92.70;;;;;;4980322;28;20042;-66
2021/11/19 09:03:28;;;;;;;13.02;8.65;;;13.20;92.80;;;;;;4971425;28;20030;-66
2021/11/19 09:05:55;;;;;;;14.38;9.05;;;13.20;92.90;;;;;;4977254;28;20042;-66
2021/11/19 09:08:23;;;;;;;20.23;10.10;;;13.20;92.90;;;;;;4967849;28;20030;-66
2021/11/19 09:10:52;;;;;;;14.65;9.27;;;13.20;92.90;;;;;;4979290;28;20846;-66
2021/11/19 09:13:18;;;;;;;16.17;9.52;;;13.20;92.90;;;;;;4973916;28;20129;-66
2021/11/19 09:15:44;;;;;;;18.55;10.18;;;13.20;93.00;;;;;;4975265;28;20070;-66
2021/11/19 09:18:12;;;;;;;13.70;8.93;;;13.20;93.10;;;;;;4980433;28;20030;-67
2021/11/19 09:20:44;;;;;;;16.10;10.13;;;13.20;93.20;;;;;;4977192;28;20030;-66
2021/11/19 09:23:15;;;;;;;17.58;9.70;;;13.20;93.30;;;;;;4972931;28;20030;-66
2021/11/19 09:25:44;;;;;;;13.75;9.45;;;13.20;93.30;;;;;;4969994;28;20042;-63
2021/11/19 09:28:11;;;;;;;17.88;10.60;;;13.30;93.20;;;;;;4979056;28;20099;-65
2021/11/19 09:30:41;;;;;;;15.80;10.05;;;13.30;93.20;;;;;;4971601;28;20034;-66
2021/11/19 09:33:12;;;;;;;20.75;11.18;;;13.20;93.10;;;;;;4976205;28;20152;-66
2021/11/19 09:35:39;;;;;;;16.95;9.50;;;13.20;93.10;;;;;;4974900;28;20031;-67
2021/11/19 09:38:07;;;;;;;15.68;10.07;;;13.20;93.20;;;;;;4966828;28;20037;-67
2021/11/19 09:40:39;;;;;;;13.23;9.20;;;13.20;93.10;;;;;;4970714;28;20138;-66
2021/11/19 09:43:29;;;;;;;13.50;9.60;;;13.20;93.20;;;;;;4975651;28;20558;-65
2021/11/19 09:46:22;;;;;;;14.43;9.95;;;13.20;93.20;;;;;;4975225;28;20074;-67
2021/11/19 09:49:21;;;;;;;15.35;9.88;;;13.20;93.20;;;;;;4975859;28;20039;-65
2021/11/19 09:52:08;;;;;;;17.13;9.82;;;13.30;93.10;;;;;;4972245;28;20035;-65
2021/11/19 09:54:52;;;;;;;12.13;8.60;;;13.50;92.80;;;;;;4962018;28;20467;-65
2021/11/19 09:57:28;;;;;;;14.40;9.68;;;13.60;92.70;;;;;;4979844;28;20050;-66
2021/11/19 10:00:24;;;;;;;13.00;9.48;;;13.60;92.60;;;;;;4988048;28;20789;-65
2021/11/19 10:03:11;;;;;;;13.95;8.88;;;13.60;92.60;;;;;;4970921;28;20133;-66
2021/11/19 10:06:04;;;;;;;16.38;9.98;;;13.60;92.60;;;;;;4968076;28;20039;-66
2021/11/19 10:08:46;;;;;;;15.23;9.35;;;13.60;92.50;;;;;;4972953;28;20171;-65
2021/11/19 10:11:51;;;;;;;14.45;9.70;;;13.70;92.30;;;;;;4974218;28;20034;-66
2021/11/19 10:14:23;;;;;;;13.40;9.27;;;13.60;92.10;;;;;;4962871;28;20491;-66
2021/11/19 10:16:58;;;;;;;15.93;9.40;;;13.60;92.10;;;;;;4974743;28;20077;-66
2021/11/19 10:19:31;;;;;;;14.77;8.55;;;13.60;92.30;;;;;;4973621;28;20413;-66
2021/11/19 10:22:18;;;;;;;20.42;10.00;;;13.70;92.20;;;;;;4963048;28;20042;-65
2021/11/19 10:25:11;;;;;;;19.67;9.70;;;13.70;92.10;;;;;;4966861;28;20649;-64
2021/11/19 10:27:43;;;;;;;16.65;10.60;;;13.80;91.90;;;;;;4968620;28;20049;-62
2021/11/19 10:30:33;;;;;;;17.17;9.65;;;13.80;91.60;;;;;;4964329;28;20415;-63
2021/11/19 10:33:16;;;;;;;15.93;9.73;;;13.80;91.60;;;;;;4991282;28;20038;-66
2021/11/19 10:35:50;;;;;;;14.60;8.40;;;13.80;91.50;;;;;;4968751;28;20053;-64
2021/11/19 10:38:25;;;;;;;13.13;8.63;;;13.90;91.50;;;;;;4966120;28;20058;-62
2021/11/19 10:41:21;;;;;;;14.10;9.30;;;13.90;91.40;;;;;;4965737;28;20038;-62
2021/11/19 10:44:08;;;;;;;14.13;8.93;;;13.90;91.30;;;;;;4967787;28;20423;-63
2021/11/19 10:46:59;;;;;;;14.80;8.45;;;13.90;91.30;;;;;;4967604;28;20565;-62
2021/11/19 10:49:42;;;;;;;12.77;9.05;;;13.90;91.40;;;;;;4968618;28;20034;-62
2021/11/19 10:52:41;;;;;;;15.63;9.00;;;13.90;91.20;;;;;;4975353;28;20061;-62
2021/11/19 10:55:25;;;;;;;16.30;8.80;;;13.90;91.30;;;;;;4968694;28;20038;-62
2021/11/19 10:58:22;;;;;;;14.18;9.82;;;13.90;91.30;;;;;;4972864;28;20087;-62
2021/11/19 11:01:06;;;;;;;13.43;7.82;;;13.90;91.30;;;;;;4975061;28;21060;-62
2021/11/19 11:03:38;;;;;;;17.73;9.38;;;13.90;91.30;;;;;;4969658;28;20046;-63
2021/11/19 11:06:17;;;;;;;13.45;8.45;;;13.90;91.30;;;;;;4968255;28;20121;-62
2021/11/19 11:08:48;;;;;;;16.60;8.90;;;13.90;91.20;;;;;;4962644;28;20038;-62
2021/11/19 11:11:20;;;;;;;12.68;8.15;;;14.00;91.30;;;;;;4983257;28;20132;-64
2021/11/19 11:14:02;;;;;;;18.38;10.60;;;14.10;91.00;;;;;;4973760;28;20461;-63
2021/11/19 11:16:42;;;;;;;15.93;9.27;;;14.10;91.00;;;;;;4974056;28;20038;-64
2021/11/19 11:19:10;;;;;;;13.77;9.05;;;14.10;90.90;;;;;;4969189;28;20038;-64
2021/11/19 11:21:50;;;;;;;15.38;8.57;;;14.00;90.80;;;;;;4979604;28;20054;-63
2021/11/19 11:24:46;;;;;;;13.02;8.68;;;14.00;91.00;;;;;;4973021;28;20054;-63
2021/11/19 11:27:11;;;;;;;17.23;8.93;;;14.10;91.00;;;;;;4959634;28;20062;-63
2021/11/19 11:29:55;;;;;;;15.88;9.23;;;14.10;90.90;;;;;;4976269;28;20091;-63
2021/11/19 11:32:42;;;;;;;13.27;8.85;;;14.10;90.80;;;;;;4976059;28;20558;-64
2021/11/19 11:35:18;;;;;;;;;;;14.00;91.00;;;;;;4979364;28;20041;-64
2021/11/19 11:38:14;;;;;;;12.73;8.07;;;14.00;90.90;;;;;;4969460;28;20278;-64
2021/11/19 11:40:56;;;;;;;15.20;8.20;;;14.10;90.80;;;;;;4972984;28;20683;-64
2021/11/19 11:43:31;;;;;;;14.18;7.80;;;14.00;90.90;;;;;;4972424;28;20031;-63
2021/11/19 11:46:19;;;;;;;14.38;8.80;;;14.00;90.90;;;;;;4978170;28;20049;-63
2021/11/19 11:49:08;;;;;;;13.90;8.25;;;14.00;91.00;;;;;;4971352;28;20057;-63
2021/11/19 11:51:49;;;;;;;13.77;8.05;;;13.90;91.00;;;;;;4969489;28;20645;-63
2021/11/19 11:54:21;;;;;;;12.50;7.80;;;13.90;90.90;;;;;;4961841;28;20043;-64
2021/11/19 11:56:49;;;;;;;13.55;8.18;;;13.90;91.10;;;;;;4964962;28;20070;-63
2021/11/19 11:59:37;;;;;;;12.93;8.00;;;13.90;91.10;;;;;;4968671;28;20565;-62
2021/11/19 12:02:19;;;;;;;13.90;7.53;;;13.90;91.20;;;;;;4974275;28;20127;-62
2021/11/19 12:05:05;;;;;;;13.60;7.35;;;13.80;91.20;;;;;;4976491;28;20115;-63
2021/11/19 12:07:56;;;;;;;11.73;7.38;;;13.90;91.20;;;;;;4969071;28;20042;-60
2021/11/19 12:10:43;;;;;;;12.32;6.57;;;13.90;91.20;;;;;;4963487;28;20034;-64
2021/11/19 12:13:17;;;;;;;13.48;6.78;;;13.90;91.00;;;;;;4972329;28;20100;-65
2021/11/19 12:16:15;;;;;;;15.25;6.72;;;14.00;90.70;;;;;;4967447;28;20101;-63
2021/11/19 12:18:47;;;;;;;11.98;6.03;;;14.10;90.60;;;;;;4967117;28;20058;-64
2021/11/19 12:21:35;;;;;;;12.98;6.22;;;14.10;90.40;;;;;;4966611;28;20038;-64
2021/11/19 12:24:43;;;;;;;12.07;5.97;;;14.20;90.20;;;;;;4972414;28;20050;-63
2021/11/19 12:27:39;;;;;;;11.38;5.72;;;14.20;90.00;;;;;;4966293;28;20057;-66
2021/11/19 12:30:32;;;;;;;12.27;4.53;;;14.20;89.90;;;;;;4973763;28;20042;-66
2021/11/19 12:33:07;;;;;;;11.50;5.18;;;14.30;89.90;;;;;;4973305;28;20426;-65
2021/11/19 12:36:05;;;;;;;8.88;5.30;;;14.20;89.70;;;;;;4978693;28;20038;-63
2021/11/19 12:38:36;;;;;;;8.57;5.13;;;14.20;89.60;;;;;;4977883;28;20079;-63
2021/11/19 12:41:18;;;;;;;7.60;4.72;;;14.20;89.60;;;;;;4975780;28;20414;-62
2021/11/19 12:43:50;;;;;;;8.93;5.25;;;14.20;89.50;;;;;;4975940;28;20070;-60
2021/11/19 12:46:31;;;;;;;11.20;5.05;;;14.20;89.60;;;;;;4977908;28;20034;-62
2021/11/19 12:49:17;;;;;;;11.15;5.30;;;14.20;88.60;;;;;;4972593;28;20089;-62
2021/11/19 12:51:51;;;;;;;8.88;4.22;;;14.40;88.40;;;;;;4972812;28;20052;-62
2021/11/19 12:54:23;;;;;;;8.73;4.30;;;14.40;88.30;;;;;;4972396;28;20030;-62
2021/11/19 12:57:00;;;;;;;7.95;4.38;;;14.50;87.40;;;;;;4967320;28;20035;-61
2021/11/19 12:59:46;;;;;;;6.05;4.25;;;14.60;86.90;;;;;;4972987;28;20132;-62
2021/11/19 13:02:34;;;;;;;7.97;4.47;;;14.70;86.50;;;;;;4971613;28;20053;-62
2021/11/19 13:05:16;;;;;;;6.80;3.83;;;14.70;86.20;;;;;;4966964;28;20114;-61
2021/11/19 13:07:44;;;;;;;7.47;4.97;;;14.70;86.00;;;;;;4962959;28;20122;-61
2021/11/19 13:10:16;;;;;;;6.85;4.40;;;14.80;85.30;;;;;;4982917;28;20407;-61
2021/11/19 13:13:22;;;;;;;7.47;3.63;;;14.80;85.10;;;;;;4973846;28;20053;-62
2021/11/19 13:15:51;;;;;;;7.63;3.78;;;14.90;84.40;;;;;;4971920;28;20045;-60